Flight Track Log - Related Links

Times and Time Zones

All times are in EDT time to prevent confusion due to time zone crossing. See the THY2455 flight status page for this flight to view local times or setup timezone preferences in your user account.

Time Position Orientation Groundspeed Altitude Reporting Facility
EDT Latitude Longitude Course Direction KTS MPH feet Rate Location/Type
Mon 02:28:00 AM 39.8909 30.7110 311° West  Level Estimated
Mon 02:29:00 AM 39.9461 30.6176 308° West  Level Estimated
Mon 02:30:00 AM 40.0013 30.5241 308° West  Level Estimated
Mon 02:31:00 AM 40.0563 30.4304 308° West  Level Estimated
Mon 02:32:00 AM 40.1113 30.3366 307° West  Level Estimated
Mon 02:33:00 AM 40.1662 30.2426 307° West  Level Estimated
Mon 02:34:00 AM 40.2210 30.1485 307° West  Level Estimated
Mon 02:35:00 AM 40.2758 30.0543 307° West  Level Estimated
Mon 02:36:00 AM 40.3304 29.9598 307° West  Level Estimated
Mon 02:37:00 AM 40.3850 29.8653 307° West  Level Estimated
Mon 02:38:00 AM 40.4396 29.7705 307° West  Level Estimated
Mon 02:39:00 AM 40.4940 29.6757 307° West  Level Estimated
Mon 02:40:00 AM 40.5484 29.5806 307° West  Level Estimated
Mon 02:41:00 AM 40.6026 29.4854 307° West  Level Estimated
Mon 02:42:00 AM 40.6568 29.3901 307° West  Level Estimated
Mon 02:43:00 AM 40.7110 29.2946 307° West  Level Estimated
Mon 02:44:00 AM 40.7650 29.1989 307° West  Level Estimated
Mon 02:45:00 AM 40.8190 29.1031 307° West  Level Estimated
Mon 02:46:00 AM 40.8729 29.0072 307° West  Level Estimated
Mon 02:47:00 AM 40.9267 28.9110 307° West  Level Estimated
Mon 02:48:00 AM 40.9769 28.8211 306° West  Level Estimated
Mon 02:49:00 AM 40.9769 28.8211 21° North  Level Estimated
Mon 02:50:00 AM 40.9769 28.8211 21° North  Level Estimated
Mon 02:51:00 AM 40.9769 28.8211 21° North  Level Estimated
Mon 02:52:00 AM 40.9769 28.8211 21° North  Level Estimated
Mon 02:53:00 AM 40.9769 28.8211 21° North  Level Estimated
Mon 02:54:00 AM 40.9769 28.8211 21° North  Level Estimated
Mon 02:55:00 AM 40.9769 28.8211 21° North  Level Estimated
Mon 02:56:00 AM 40.9769 28.8211 21° North  Level Estimated
Mon 02:57:00 AM 40.9769 28.8211 21° North  Level Estimated
Mon 02:58:00 AM 40.9769 28.8211 21° North  Level Estimated
Mon 02:59:00 AM 40.9769 28.8211 21° North  Level Estimated
Mon 03:00:00 AM 40.9769 28.8211 21° North  Level Estimated
Mon 03:01:00 AM 40.9769 28.8211 21° North  Level Estimated
Mon 03:02:00 AM 40.9769 28.8211 21° North  Level Estimated
Mon 03:03:00 AM 40.9769 28.8211 21° North  Level Estimated
Mon 03:04:00 AM 40.9769 28.8211 21° North  Level Estimated

Login

Don't have an account? Register now (free) for customized features, flight alerts, and more!